Time;durP1;ratioP1;P1;durP2;ratioP2;P2;SDS_P1;SDS_P2;PMS_P1;PMS_P2;Temp;Humidity;BMP_temperature;BMP_pressure;BME280_temperature;BME280_humidity;BME280_pressure;Samples;Min_cycle;Max_cycle;Signal;HPM_P1;HPM_P2
2023/03/13 00:01:51;;;;;;;27.40;20.20;;;;;;;;;;5078259;28;20449;-82
2023/03/13 00:04:18;;;;;;;20.63;18.83;;;;;;;;;;5079390;28;20447;-81
2023/03/13 00:06:45;;;;;;;20.73;18.47;;;;;;;;;;5079035;28;20457;-82
2023/03/13 00:09:14;;;;;;;21.57;19.23;;;;;;;;;;5079127;28;20457;-81
2023/03/13 00:11:41;;;;;;;25.77;19.50;;;;;;;;;;5078362;28;20450;-82
2023/03/13 00:14:08;;;;;;;26.80;19.20;;;;;;;;;;5079300;28;20496;-82
2023/03/13 00:16:36;;;;;;;24.93;21.23;;;;;;;;;;5079101;28;20441;-82
2023/03/13 00:19:05;;;;;;;21.43;19.37;;;;;;;;;;5079195;28;20450;-82
2023/03/13 00:21:32;;;;;;;25.30;19.80;;;;;;;;;;5078180;28;20454;-82
2023/03/13 00:23:59;;;;;;;27.50;18.80;;;;;;;;;;5079103;28;20459;-82
2023/03/13 00:26:27;;;;;;;18.80;17.30;;;;;;;;;;5078300;28;21031;-81
2023/03/13 00:28:54;;;;;;;21.20;19.03;;;;;;;;;;5078878;28;20431;-81
2023/03/13 00:31:22;;;;;;;20.50;18.57;;;;;;;;;;5078315;28;20540;-82
2023/03/13 00:33:50;;;;;;;25.73;20.30;;;;;;;;;;5078538;28;20556;-81
2023/03/13 00:36:19;;;;;;;20.90;18.90;;;;;;;;;;5078201;28;20449;-81
2023/03/13 00:38:47;;;;;;;20.70;18.70;;;;;;;;;;5078214;28;20421;-81
2023/03/13 00:41:15;;;;;;;22.30;20.10;;;;;;;;;;5078377;28;20775;-82
2023/03/13 00:43:43;;;;;;;22.90;18.90;;;;;;;;;;5078446;28;20840;-81
2023/03/13 00:46:10;;;;;;;19.37;17.70;;;;;;;;;;5078192;28;20459;-81
2023/03/13 00:48:37;;;;;;;23.23;20.47;;;;;;;;;;5078246;28;20486;-81
2023/03/13 00:51:04;;;;;;;21.37;19.10;;;;;;;;;;5078124;28;20480;-81
2023/03/13 00:53:33;;;;;;;22.37;18.50;;;;;;;;;;5077628;28;20451;-82
2023/03/13 00:56:01;;;;;;;19.73;18.10;;;;;;;;;;5078076;28;20463;-81
2023/03/13 00:58:29;;;;;;;21.80;19.67;;;;;;;;;;5078418;28;20464;-81
2023/03/13 01:00:56;;;;;;;22.17;19.77;;;;;;;;;;5078682;28;20501;-81
2023/03/13 01:03:24;;;;;;;20.37;18.40;;;;;;;;;;5077449;28;20434;-81
2023/03/13 01:05:58;;;;;;;22.83;19.60;;;;;;;;;;5078122;28;20450;-81
2023/03/13 01:08:25;;;;;;;23.17;20.80;;;;;;;;;;5078356;28;20449;-81
2023/03/13 01:10:58;;;;;;;20.40;18.40;;;;;;;;;;5078030;28;20462;-81
2023/03/13 01:13:25;;;;;;;20.60;18.80;;;;;;;;;;5077519;28;20438;-81
2023/03/13 01:15:52;;;;;;;21.90;19.63;;;;;;;;;;5077588;28;20480;-81
2023/03/13 01:18:18;;;;;;;22.63;20.43;;;;;;;;;;5077533;28;20786;-81
2023/03/13 01:20:45;;;;;;;19.67;18.17;;;;;;;;;;5077642;28;20774;-81
2023/03/13 01:23:12;;;;;;;21.80;19.80;;;;;;;;;;5077144;28;20474;-81
2023/03/13 01:25:39;;;;;;;20.13;18.27;;;;;;;;;;5077757;28;20476;-81
2023/03/13 01:28:08;;;;;;;20.50;18.63;;;;;;;;;;5085275;28;20467;-81
2023/03/13 01:30:35;;;;;;;22.90;19.50;;;;;;;;;;5084296;28;20452;-81
2023/03/13 01:33:02;;;;;;;20.80;18.90;;;;;;;;;;5080232;28;20972;-82
2023/03/13 01:35:29;;;;;;;20.50;19.00;;;;;;;;;;5077067;28;20486;-81
2023/03/13 01:37:56;;;;;;;22.33;18.90;;;;;;;;;;5077379;28;20438;-81
2023/03/13 01:40:23;;;;;;;34.93;18.80;;;;;;;;;;5077445;28;20875;-81
2023/03/13 01:42:51;;;;;;;21.37;19.37;;;;;;;;;;5077213;28;20420;-81
2023/03/13 01:45:36;;;;;;;18.77;17.47;;;;;;;;;;5077376;28;20426;-81
2023/03/13 01:48:06;;;;;;;20.00;18.20;;;;;;;;;;5077698;28;20458;-82
2023/03/13 01:50:33;;;;;;;21.93;18.50;;;;;;;;;;5077270;28;20472;-81
2023/03/13 01:53:00;;;;;;;20.07;18.17;;;;;;;;;;5077400;28;20468;-82
2023/03/13 01:55:27;;;;;;;19.33;17.77;;;;;;;;;;5077524;28;20438;-82
2023/03/13 01:57:55;;;;;;;19.73;18.13;;;;;;;;;;5077483;28;20475;-82
2023/03/13 02:00:23;;;;;;;20.63;18.80;;;;;;;;;;5077048;28;20494;-81
2023/03/13 02:02:52;;;;;;;20.67;18.57;;;;;;;;;;5076646;28;20474;-81
2023/03/13 02:05:21;;;;;;;20.83;18.67;;;;;;;;;;5077504;28;20450;-81
2023/03/13 02:07:50;;;;;;;19.43;17.70;;;;;;;;;;5077500;28;20429;-81
2023/03/13 02:10:17;;;;;;;20.70;19.00;;;;;;;;;;5077529;28;20446;-81
2023/03/13 02:12:45;;;;;;;21.07;19.00;;;;;;;;;;5076684;28;20527;-82
2023/03/13 02:15:13;;;;;;;20.53;18.70;;;;;;;;;;5077330;28;20488;-81
2023/03/13 02:17:41;;;;;;;20.80;18.70;;;;;;;;;;5076960;28;20427;-81
2023/03/13 02:20:09;;;;;;;20.27;18.37;;;;;;;;;;5077178;28;20447;-81
2023/03/13 02:22:41;;;;;;;20.00;18.40;;;;;;;;;;5076636;28;20427;-81
2023/03/13 02:25:12;;;;;;;20.40;18.60;;;;;;;;;;5080278;28;20972;-82
2023/03/13 02:27:41;;;;;;;21.03;19.23;;;;;;;;;;5081168;28;20549;-82
2023/03/13 02:30:09;;;;;;;20.60;18.60;;;;;;;;;;5080956;28;20431;-82
2023/03/13 02:32:36;;;;;;;21.43;19.80;;;;;;;;;;5080444;28;20492;-81
2023/03/13 02:35:07;;;;;;;22.57;20.20;;;;;;;;;;5081305;28;20444;-82
2023/03/13 02:37:34;;;;;;;22.10;20.23;;;;;;;;;;5080634;28;20839;-81
2023/03/13 02:40:03;;;;;;;21.90;19.60;;;;;;;;;;5080811;28;20843;-81
2023/03/13 02:42:31;;;;;;;21.30;19.33;;;;;;;;;;5080151;28;20424;-82
2023/03/13 02:44:59;;;;;;;20.97;19.43;;;;;;;;;;5081007;28;20508;-82
2023/03/13 02:47:27;;;;;;;22.00;20.50;;;;;;;;;;5080422;28;21007;-81
2023/03/13 02:49:53;;;;;;;24.07;19.83;;;;;;;;;;5080435;28;20421;-81
2023/03/13 02:52:24;;;;;;;21.47;19.43;;;;;;;;;;5079970;28;20482;-82
2023/03/13 02:54:52;;;;;;;23.60;19.10;;;;;;;;;;5080426;28;20405;-82
2023/03/13 02:57:19;;;;;;;21.73;19.80;;;;;;;;;;5080705;28;20449;-82
2023/03/13 02:59:46;;;;;;;32.53;22.93;;;;;;;;;;5080597;28;20444;-81
2023/03/13 03:02:14;;;;;;;21.50;19.70;;;;;;;;;;5078766;28;20909;-82
2023/03/13 03:04:41;;;;;;;21.77;19.77;;;;;;;;;;5079610;28;20770;-81
2023/03/13 03:07:08;;;;;;;25.13;22.43;;;;;;;;;;5078397;28;20881;-81
2023/03/13 03:09:35;;;;;;;23.80;22.00;;;;;;;;;;5079503;28;20423;-81
2023/03/13 03:12:02;;;;;;;23.80;21.87;;;;;;;;;;5078463;28;20544;-81
2023/03/13 03:14:29;;;;;;;23.63;21.83;;;;;;;;;;5078974;28;20413;-81
2023/03/13 03:16:56;;;;;;;22.60;21.47;;;;;;;;;;5079071;28;20520;-81
2023/03/13 03:19:24;;;;;;;25.63;23.07;;;;;;;;;;5079261;28;20506;-81
2023/03/13 03:21:51;;;;;;;27.30;25.10;;;;;;;;;;5078703;28;21017;-82
2023/03/13 03:24:18;;;;;;;29.67;27.03;;;;;;;;;;5079327;28;20823;-81
2023/03/13 03:26:45;;;;;;;27.53;25.83;;;;;;;;;;5079192;28;20603;-81
2023/03/13 03:29:13;;;;;;;29.77;27.43;;;;;;;;;;5078622;28;20438;-81
2023/03/13 03:31:40;;;;;;;30.37;27.77;;;;;;;;;;5078530;28;20504;-82
2023/03/13 03:34:07;;;;;;;32.03;29.37;;;;;;;;;;5079555;28;20438;-82
2023/03/13 03:36:35;;;;;;;30.07;28.00;;;;;;;;;;5078122;28;20865;-82
2023/03/13 03:39:02;;;;;;;36.37;33.77;;;;;;;;;;5079055;28;20783;-81
2023/03/13 03:41:29;;;;;;;35.20;32.87;;;;;;;;;;5078305;28;20461;-82
2023/03/13 03:43:56;;;;;;;34.80;32.30;;;;;;;;;;5079359;28;20463;-82
2023/03/13 03:46:24;;;;;;;36.70;33.20;;;;;;;;;;5078961;28;20477;-82
2023/03/13 03:48:51;;;;;;;37.63;34.93;;;;;;;;;;5079046;28;20440;-81
2023/03/13 03:51:18;;;;;;;40.13;37.10;;;;;;;;;;5078376;28;20428;-82
2023/03/13 03:53:46;;;;;;;39.13;35.83;;;;;;;;;;5078321;28;20420;-82
2023/03/13 03:56:14;;;;;;;37.83;35.03;;;;;;;;;;5079057;28;20434;-81
2023/03/13 03:58:41;;;;;;;37.83;35.13;;;;;;;;;;5078326;28;20591;-82
2023/03/13 04:01:08;;;;;;;37.90;34.63;;;;;;;;;;5078509;28;20453;-82
2023/03/13 04:03:35;;;;;;;39.50;36.60;;;;;;;;;;5079066;28;20442;-81
2023/03/13 04:06:02;;;;;;;39.63;37.03;;;;;;;;;;5078805;28;20948;-81
2023/03/13 04:08:28;;;;;;;36.23;33.57;;;;;;;;;;5078689;28;21007;-82
2023/03/13 04:10:57;;;;;;;34.93;32.83;;;;;;;;;;5079249;28;20804;-82
2023/03/13 04:13:24;;;;;;;40.57;37.23;;;;;;;;;;5078378;28;20461;-82
2023/03/13 04:15:51;;;;;;;38.83;36.40;;;;;;;;;;5079457;28;20436;-82
2023/03/13 04:18:18;;;;;;;37.83;36.03;;;;;;;;;;5079180;28;20422;-82
2023/03/13 04:20:45;;;;;;;39.87;37.17;;;;;;;;;;5078467;28;20971;-82
2023/03/13 04:23:12;;;;;;;40.00;37.10;;;;;;;;;;5078152;28;20440;-82
2023/03/13 04:25:39;;;;;;;41.00;38.30;;;;;;;;;;5078129;28;20453;-82
2023/03/13 04:28:07;;;;;;;38.43;35.77;;;;;;;;;;5078892;28;20457;-82
2023/03/13 04:30:34;;;;;;;39.53;36.73;;;;;;;;;;5077751;28;20439;-82
2023/03/13 04:33:01;;;;;;;38.50;36.17;;;;;;;;;;5078006;28;20495;-82
2023/03/13 04:35:28;;;;;;;38.63;36.17;;;;;;;;;;5078455;28;20430;-81
2023/03/13 04:37:55;;;;;;;39.10;36.73;;;;;;;;;;5078297;28;20475;-83
2023/03/13 04:40:22;;;;;;;38.50;36.40;;;;;;;;;;5078542;28;20867;-82
2023/03/13 04:42:49;;;;;;;40.20;37.67;;;;;;;;;;5078303;28;20479;-82
2023/03/13 04:45:17;;;;;;;39.87;37.67;;;;;;;;;;5079067;28;20425;-82
2023/03/13 04:47:44;;;;;;;38.00;35.60;;;;;;;;;;5077715;28;20429;-82
2023/03/13 04:50:11;;;;;;;36.80;34.53;;;;;;;;;;5078293;28;20447;-83
2023/03/13 04:52:38;;;;;;;38.67;36.27;;;;;;;;;;5077548;28;20461;-81
2023/03/13 04:55:05;;;;;;;35.20;33.20;;;;;;;;;;5077859;28;20468;-82
2023/03/13 04:57:32;;;;;;;35.93;34.03;;;;;;;;;;5078468;28;20435;-82
2023/03/13 04:59:59;;;;;;;35.57;33.57;;;;;;;;;;5078088;28;20824;-82
2023/03/13 05:02:28;;;;;;;37.90;35.60;;;;;;;;;;5077760;28;20418;-82
2023/03/13 05:04:55;;;;;;;37.40;35.40;;;;;;;;;;5077844;28;20426;-82
2023/03/13 05:07:22;;;;;;;37.47;35.57;;;;;;;;;;5077631;28;20497;-82
2023/03/13 05:09:49;;;;;;;36.83;34.77;;;;;;;;;;5078256;28;20472;-82
2023/03/13 05:12:15;;;;;;;35.97;34.20;;;;;;;;;;5077567;28;20509;-82
2023/03/13 05:14:42;;;;;;;35.73;33.83;;;;;;;;;;5077863;28;20423;-82
2023/03/13 05:17:11;;;;;;;33.90;32.37;;;;;;;;;;5077392;28;20431;-82
2023/03/13 05:19:39;;;;;;;35.43;33.63;;;;;;;;;;5078032;28;20517;-82
2023/03/13 05:22:06;;;;;;;36.07;34.37;;;;;;;;;;5076944;28;20866;-83
2023/03/13 05:24:33;;;;;;;38.93;36.83;;;;;;;;;;5077388;28;20420;-82
2023/03/13 05:27:01;;;;;;;37.10;35.30;;;;;;;;;;5077750;28;20494;-82
2023/03/13 05:29:28;;;;;;;38.17;36.23;;;;;;;;;;5077410;28;20451;-82
2023/03/13 05:31:55;;;;;;;39.17;37.27;;;;;;;;;;5077130;28;20860;-82
2023/03/13 05:34:22;;;;;;;37.57;35.60;;;;;;;;;;5077695;28;20424;-82
2023/03/13 05:36:50;;;;;;;36.93;35.00;;;;;;;;;;5077464;28;20434;-82
2023/03/13 05:39:17;;;;;;;37.03;35.20;;;;;;;;;;5077458;28;20447;-82
2023/03/13 05:41:44;;;;;;;36.13;34.37;;;;;;;;;;5083765;28;20445;-82
2023/03/13 05:44:11;;;;;;;36.13;34.43;;;;;;;;;;5092332;28;20437;-82
2023/03/13 05:46:38;;;;;;;37.53;35.70;;;;;;;;;;5092658;28;20984;-82
2023/03/13 05:49:06;;;;;;;36.07;34.47;;;;;;;;;;5078723;28;20988;-82
2023/03/13 05:51:33;;;;;;;36.13;34.43;;;;;;;;;;5077245;28;20589;-83
2023/03/13 05:54:01;;;;;;;33.93;32.23;;;;;;;;;;5077371;28;20533;-82
2023/03/13 05:56:28;;;;;;;37.30;35.50;;;;;;;;;;5077137;28;20481;-82
2023/03/13 05:58:55;;;;;;;39.40;37.50;;;;;;;;;;5076972;28;20467;-82
2023/03/13 06:01:22;;;;;;;37.60;35.60;;;;;;;;;;5076403;28;20414;-82
2023/03/13 06:03:49;;;;;;;37.93;36.23;;;;;;;;;;5077229;28;20417;-82
2023/03/13 06:06:16;;;;;;;38.97;37.07;;;;;;;;;;5076665;28;20443;-82
2023/03/13 06:08:43;;;;;;;39.57;37.67;;;;;;;;;;5077588;28;20420;-82
2023/03/13 06:11:11;;;;;;;38.00;36.20;;;;;;;;;;5078005;28;20447;-81
2023/03/13 06:13:38;;;;;;;37.03;35.23;;;;;;;;;;5075894;28;20983;-82
2023/03/13 06:16:06;;;;;;;35.87;34.20;;;;;;;;;;5076904;28;20526;-82
2023/03/13 06:18:33;;;;;;;35.87;33.97;;;;;;;;;;5077074;28;20408;-82
2023/03/13 06:21:01;;;;;;;36.40;34.70;;;;;;;;;;5076835;28;20982;-82
2023/03/13 06:23:28;;;;;;;37.37;35.50;;;;;;;;;;5076179;28;20455;-82
2023/03/13 06:25:55;;;;;;;38.57;36.57;;;;;;;;;;5077164;28;20459;-82
2023/03/13 06:28:23;;;;;;;35.33;33.73;;;;;;;;;;5077311;28;20489;-82
2023/03/13 06:30:50;;;;;;;37.37;35.53;;;;;;;;;;5077541;28;20485;-82
2023/03/13 06:33:17;;;;;;;41.03;39.07;;;;;;;;;;5076605;28;20553;-80
2023/03/13 06:35:44;;;;;;;39.93;37.93;;;;;;;;;;5076081;28;20472;-79
2023/03/13 06:38:12;;;;;;;41.13;38.93;;;;;;;;;;5076101;28;20442;-80
2023/03/13 06:40:39;;;;;;;40.23;38.37;;;;;;;;;;5076368;28;20905;-79
2023/03/13 06:43:06;;;;;;;38.70;37.00;;;;;;;;;;5075216;28;20925;-79
2023/03/13 06:45:35;;;;;;;40.80;38.87;;;;;;;;;;5075859;28;20945;-79
2023/03/13 06:48:02;;;;;;;39.37;37.47;;;;;;;;;;5075505;28;20450;-79
2023/03/13 06:50:29;;;;;;;37.17;35.40;;;;;;;;;;5073509;28;20438;-79
2023/03/13 06:52:57;;;;;;;39.33;37.17;;;;;;;;;;5073355;28;20812;-79
2023/03/13 06:55:25;;;;;;;37.07;35.20;;;;;;;;;;5073465;28;20450;-79
2023/03/13 06:57:52;;;;;;;36.97;35.23;;;;;;;;;;5073820;28;20465;-79
2023/03/13 07:00:20;;;;;;;35.37;33.57;;;;;;;;;;5073669;28;20519;-79
2023/03/13 07:02:48;;;;;;;34.70;33.10;;;;;;;;;;5072955;28;20418;-79
2023/03/13 07:05:15;;;;;;;37.10;35.30;;;;;;;;;;5074003;28;20416;-79
2023/03/13 07:07:44;;;;;;;35.97;34.27;;;;;;;;;;5073849;28;20418;-79
2023/03/13 07:10:12;;;;;;;38.03;36.23;;;;;;;;;;5075837;28;20481;-79
2023/03/13 07:12:39;;;;;;;38.07;36.13;;;;;;;;;;5076713;28;20665;-79
2023/03/13 07:15:07;;;;;;;36.57;34.97;;;;;;;;;;5077366;28;20485;-79
2023/03/13 07:17:34;;;;;;;36.97;35.17;;;;;;;;;;5077637;28;20426;-78
2023/03/13 07:20:03;;;;;;;39.53;37.63;;;;;;;;;;5077463;28;20470;-78
2023/03/13 07:22:30;;;;;;;37.67;35.77;;;;;;;;;;5076839;28;20441;-79
2023/03/13 07:24:57;;;;;;;37.17;35.37;;;;;;;;;;5077258;28;20429;-79
2023/03/13 07:27:24;;;;;;;34.93;33.33;;;;;;;;;;5076719;28;20444;-79
2023/03/13 07:29:51;;;;;;;35.53;33.73;;;;;;;;;;5076952;28;20429;-79
2023/03/13 07:32:18;;;;;;;35.80;34.10;;;;;;;;;;5076223;28;20926;-79
2023/03/13 07:34:45;;;;;;;35.27;33.67;;;;;;;;;;5076523;28;20485;-79
2023/03/13 07:37:14;;;;;;;34.20;32.67;;;;;;;;;;5076478;28;20497;-79
2023/03/13 07:39:41;;;;;;;36.60;34.00;;;;;;;;;;5076368;28;20447;-79
2023/03/13 07:42:09;;;;;;;33.57;32.03;;;;;;;;;;5075959;28;20454;-79
2023/03/13 07:44:36;;;;;;;35.33;33.47;;;;;;;;;;5076346;28;20450;-79
2023/03/13 07:47:03;;;;;;;33.30;31.30;;;;;;;;;;5075888;28;20450;-79
2023/03/13 07:49:30;;;;;;;31.10;29.70;;;;;;;;;;5076891;28;20459;-78
2023/03/13 07:51:57;;;;;;;32.13;30.63;;;;;;;;;;5075653;28;20448;-78
2023/03/13 07:54:25;;;;;;;29.20;27.90;;;;;;;;;;5076420;28;20485;-79
2023/03/13 07:56:52;;;;;;;31.13;29.67;;;;;;;;;;5075747;28;20458;-78
2023/03/13 07:59:19;;;;;;;28.70;27.40;;;;;;;;;;5077432;28;20476;-78
2023/03/13 08:01:46;;;;;;;29.70;28.20;;;;;;;;;;5075679;28;20450;-78
2023/03/13 08:04:13;;;;;;;27.43;26.13;;;;;;;;;;5076306;28;20481;-78
2023/03/13 08:06:40;;;;;;;27.40;26.13;;;;;;;;;;5076226;28;20469;-78
2023/03/13 08:09:08;;;;;;;26.77;25.43;;;;;;;;;;5075708;28;20922;-78
2023/03/13 08:11:36;;;;;;;26.93;25.67;;;;;;;;;;5075115;28;20506;-78
2023/03/13 08:14:03;;;;;;;27.10;25.80;;;;;;;;;;5075483;28;20494;-78
2023/03/13 08:16:32;;;;;;;27.63;26.40;;;;;;;;;;5075464;28;20445;-78
2023/03/13 08:18:59;;;;;;;24.73;23.63;;;;;;;;;;5075400;28;20458;-78
2023/03/13 08:21:27;;;;;;;23.73;22.67;;;;;;;;;;5074287;28;20437;-79
2023/03/13 08:23:55;;;;;;;23.47;22.47;;;;;;;;;;5075376;28;20444;-78
2023/03/13 08:26:23;;;;;;;23.27;22.17;;;;;;;;;;5076230;28;20506;-89
2023/03/13 08:28:54;;;;;;;22.93;21.93;;;;;;;;;;5077457;28;20445;-78
2023/03/13 08:31:23;;;;;;;22.50;21.30;;;;;;;;;;5074902;28;20484;-79
2023/03/13 08:33:50;;;;;;;22.23;21.13;;;;;;;;;;5075110;28;20456;-77
2023/03/13 08:36:22;;;;;;;22.23;21.20;;;;;;;;;;5074941;28;20821;-78
2023/03/13 08:38:49;;;;;;;21.97;20.97;;;;;;;;;;5074966;28;20453;-78
2023/03/13 08:41:17;;;;;;;22.97;21.87;;;;;;;;;;5075595;28;20493;-79
2023/03/13 08:43:44;;;;;;;20.87;19.87;;;;;;;;;;5074695;28;20446;-78
2023/03/13 08:46:13;;;;;;;20.23;19.33;;;;;;;;;;5074823;28;20505;-78
2023/03/13 08:48:40;;;;;;;21.20;20.00;;;;;;;;;;5074834;28;20437;-78
2023/03/13 08:51:08;;;;;;;20.23;19.23;;;;;;;;;;5074906;28;20421;-78
2023/03/13 08:53:36;;;;;;;20.57;19.67;;;;;;;;;;5074239;28;20494;-78
2023/03/13 08:56:03;;;;;;;20.13;19.23;;;;;;;;;;5075228;28;20504;-79
2023/03/13 08:58:30;;;;;;;19.90;18.90;;;;;;;;;;5075493;28;20430;-87
2023/03/13 09:01:01;;;;;;;20.53;19.63;;;;;;;;;;5075303;28;20446;-77
2023/03/13 09:03:29;;;;;;;20.90;19.70;;;;;;;;;;5074200;28;20513;-78
2023/03/13 09:05:57;;;;;;;19.27;18.33;;;;;;;;;;5074688;28;20466;-81
2023/03/13 09:08:24;;;;;;;19.83;18.83;;;;;;;;;;5058413;28;20461;-79
2023/03/13 09:10:55;;;;;;;19.33;18.33;;;;;;;;;;5056053;28;20433;-79
2023/03/13 09:13:22;;;;;;;20.30;19.30;;;;;;;;;;5054225;28;21020;-77
2023/03/13 09:15:54;;;;;;;20.40;19.03;;;;;;;;;;5054017;28;20921;-77
2023/03/13 09:18:21;;;;;;;18.23;17.27;;;;;;;;;;5053941;28;20964;-78
2023/03/13 09:20:49;;;;;;;20.10;18.90;;;;;;;;;;5054666;28;20450;-81
2023/03/13 09:23:16;;;;;;;19.90;18.90;;;;;;;;;;5055273;28;20437;-81
2023/03/13 09:25:43;;;;;;;20.47;19.07;;;;;;;;;;5054440;28;20489;-77
2023/03/13 09:28:10;;;;;;;19.80;18.73;;;;;;;;;;5053944;28;20496;-77
2023/03/13 09:30:37;;;;;;;18.97;18.07;;;;;;;;;;5054006;28;20449;-77
2023/03/13 09:33:04;;;;;;;19.30;18.30;;;;;;;;;;5052371;28;20512;-79
2023/03/13 09:35:31;;;;;;;19.97;18.77;;;;;;;;;;5056301;28;20501;-80
2023/03/13 09:37:59;;;;;;;18.80;17.90;;;;;;;;;;5056578;28;20429;-80
2023/03/13 09:40:27;;;;;;;19.70;18.60;;;;;;;;;;5056367;28;20441;-81
2023/03/13 09:42:56;;;;;;;20.40;19.30;;;;;;;;;;5056514;28;20438;-81
2023/03/13 09:45:25;;;;;;;20.73;19.70;;;;;;;;;;5056949;28;20997;-81
2023/03/13 09:47:55;;;;;;;19.30;18.30;;;;;;;;;;5056705;28;20432;-81
2023/03/13 09:50:24;;;;;;;20.40;19.40;;;;;;;;;;5056609;28;20447;-82
2023/03/13 09:52:53;;;;;;;19.10;18.10;;;;;;;;;;5056688;28;20409;-80
2023/03/13 09:55:23;;;;;;;19.77;18.73;;;;;;;;;;5055981;28;20872;-79
2023/03/13 09:57:51;;;;;;;19.50;18.50;;;;;;;;;;5056658;28;20487;-79
2023/03/13 10:00:20;;;;;;;20.10;18.43;;;;;;;;;;5056972;28;20505;-79
2023/03/13 10:02:48;;;;;;;19.27;18.37;;;;;;;;;;5074340;28;20549;-78
2023/03/13 10:05:17;;;;;;;19.63;18.60;;;;;;;;;;5077713;28;20462;-79
2023/03/13 10:07:44;;;;;;;22.10;20.83;;;;;;;;;;5080095;28;20423;-79
2023/03/13 10:10:16;;;;;;;20.43;19.23;;;;;;;;;;5075402;28;20503;-83
2023/03/13 10:12:46;;;;;;;19.37;18.33;;;;;;;;;;5073587;28;20424;-79
2023/03/13 10:15:29;;;;;;;19.70;18.63;;;;;;;;;;5073619;28;20468;-79
2023/03/13 10:17:58;;;;;;;18.63;17.63;;;;;;;;;;5073873;28;20475;-78
2023/03/13 10:20:26;;;;;;;19.80;18.77;;;;;;;;;;5074641;28;20416;-79
2023/03/13 10:22:57;;;;;;;19.43;18.30;;;;;;;;;;5073912;28;20450;-79
2023/03/13 10:25:34;;;;;;;20.03;18.60;;;;;;;;;;5074252;28;20861;-80
2023/03/13 10:28:02;;;;;;;20.90;19.80;;;;;;;;;;5076670;28;20411;-80
2023/03/13 10:30:30;;;;;;;20.50;19.40;;;;;;;;;;5074788;28;20908;-80
2023/03/13 10:32:59;;;;;;;20.17;19.07;;;;;;;;;;5075522;28;20420;-80
2023/03/13 10:35:31;;;;;;;20.87;19.67;;;;;;;;;;5076362;28;20542;-80
2023/03/13 10:38:01;;;;;;;18.50;17.60;;;;;;;;;;5075983;28;20434;-79
2023/03/13 10:40:28;;;;;;;19.03;17.90;;;;;;;;;;5074517;28;20811;-78
2023/03/13 10:43:00;;;;;;;19.50;18.40;;;;;;;;;;5073746;28;20447;-80
2023/03/13 10:45:32;;;;;;;20.17;19.00;;;;;;;;;;5076135;28;20527;-79
2023/03/13 10:48:01;;;;;;;19.33;17.73;;;;;;;;;;5077771;28;20442;-77
2023/03/13 10:50:32;;;;;;;18.90;18.00;;;;;;;;;;5079512;28;20479;-75
2023/03/13 10:53:08;;;;;;;19.27;18.27;;;;;;;;;;5076330;28;20768;-75
2023/03/13 10:55:35;;;;;;;19.30;18.30;;;;;;;;;;5076387;28;20542;-76
2023/03/13 10:58:03;;;;;;;19.33;18.13;;;;;;;;;;5076660;28;20444;-75
2023/03/13 11:00:34;;;;;;;20.73;19.53;;;;;;;;;;5076569;28;20446;-75
2023/03/13 11:03:02;;;;;;;19.30;18.30;;;;;;;;;;5060621;28;20541;-80
2023/03/13 11:05:31;;;;;;;20.53;19.23;;;;;;;;;;5056947;28;20466;-77
2023/03/13 11:07:58;;;;;;;20.30;19.40;;;;;;;;;;5056340;28;20448;-75
2023/03/13 11:10:27;;;;;;;22.00;20.90;;;;;;;;;;5056331;28;20512;-75
2023/03/13 11:12:55;;;;;;;20.50;19.50;;;;;;;;;;5055846;28;20484;-76
2023/03/13 11:15:24;;;;;;;20.97;19.97;;;;;;;;;;5056576;28;20556;-78
2023/03/13 11:17:55;;;;;;;21.20;20.00;;;;;;;;;;5055284;28;20955;-77
2023/03/13 11:20:23;;;;;;;20.97;19.77;;;;;;;;;;5056488;28;20485;-79
2023/03/13 11:22:54;;;;;;;21.50;20.20;;;;;;;;;;5056720;28;20434;-80
2023/03/13 11:25:22;;;;;;;20.07;19.07;;;;;;;;;;5056917;28;20826;-79
2023/03/13 11:27:56;;;;;;;20.70;19.70;;;;;;;;;;5070196;28;20494;-82
2023/03/13 11:30:33;;;;;;;20.87;19.77;;;;;;;;;;5075469;28;20533;-78
2023/03/13 11:33:03;;;;;;;21.40;20.30;;;;;;;;;;5075934;28;20487;-78
2023/03/13 11:35:36;;;;;;;21.47;20.37;;;;;;;;;;5076141;28;20486;-78
2023/03/13 11:38:08;;;;;;;20.20;19.30;;;;;;;;;;5076204;28;20446;-76
2023/03/13 11:40:36;;;;;;;20.00;18.90;;;;;;;;;;5075754;28;20911;-75
2023/03/13 11:43:09;;;;;;;19.70;18.70;;;;;;;;;;5075689;28;20437;-75
2023/03/13 11:45:59;;;;;;;19.57;18.47;;;;;;;;;;5074450;28;20433;-75
2023/03/13 11:48:43;;;;;;;20.10;19.10;;;;;;;;;;5075603;28;20793;-76
2023/03/13 11:51:16;;;;;;;19.83;18.83;;;;;;;;;;5065850;28;20454;-75
2023/03/13 11:53:53;;;;;;;20.07;19.03;;;;;;;;;;5075881;28;20404;-80
2023/03/13 11:56:22;;;;;;;20.33;19.23;;;;;;;;;;5073875;28;20497;-75
2023/03/13 11:59:04;;;;;;;20.47;19.17;;;;;;;;;;5075243;28;20500;-75
2023/03/13 12:01:33;;;;;;;20.03;19.00;;;;;;;;;;5072507;28;20928;-76
2023/03/13 12:04:04;;;;;;;20.50;19.20;;;;;;;;;;5075741;28;20466;-76
2023/03/13 12:06:34;;;;;;;20.00;18.90;;;;;;;;;;5075254;28;20466;-76
2023/03/13 12:09:05;;;;;;;20.17;19.17;;;;;;;;;;5075430;28;20462;-76
2023/03/13 12:11:33;;;;;;;21.50;20.30;;;;;;;;;;5074994;28;20458;-75
2023/03/13 12:14:02;;;;;;;21.00;19.90;;;;;;;;;;5075625;28;20461;-76
2023/03/13 12:16:37;;;;;;;20.20;19.20;;;;;;;;;;5075225;28;20466;-75
2023/03/13 12:19:05;;;;;;;21.40;20.10;;;;;;;;;;5074371;28;20436;-76
2023/03/13 12:21:37;;;;;;;20.30;19.30;;;;;;;;;;5074915;28;20420;-75
2023/03/13 12:24:05;;;;;;;22.10;20.70;;;;;;;;;;5075340;28;20412;-74
2023/03/13 12:26:35;;;;;;;21.00;19.90;;;;;;;;;;5074605;28;20527;-76
2023/03/13 12:29:06;;;;;;;21.60;20.43;;;;;;;;;;5074313;28;20516;-75
2023/03/13 12:31:35;;;;;;;20.67;19.67;;;;;;;;;;5074331;28;20532;-75
2023/03/13 12:34:08;;;;;;;20.97;19.80;;;;;;;;;;5075054;28;20477;-75
2023/03/13 12:36:40;;;;;;;20.43;19.20;;;;;;;;;;5074663;28;20447;-75
2023/03/13 12:39:12;;;;;;;19.80;18.80;;;;;;;;;;5074318;28;20491;-76
2023/03/13 12:41:42;;;;;;;20.23;19.03;;;;;;;;;;5074078;28;20862;-75
2023/03/13 12:44:12;;;;;;;21.80;20.40;;;;;;;;;;5074741;28;20933;-75
2023/03/13 12:46:41;;;;;;;20.67;19.57;;;;;;;;;;5074603;28;20440;-76
2023/03/13 12:49:18;;;;;;;20.03;18.83;;;;;;;;;;5074687;28;20417;-75
2023/03/13 12:51:52;;;;;;;20.57;19.37;;;;;;;;;;5074212;28;20463;-75
2023/03/13 12:54:35;;;;;;;20.47;19.27;;;;;;;;;;5074494;28;20415;-75
2023/03/13 12:57:09;;;;;;;20.53;19.43;;;;;;;;;;5072587;28;20824;-75
2023/03/13 12:59:38;;;;;;;21.67;20.23;;;;;;;;;;5074241;28;20809;-75
2023/03/13 13:02:14;;;;;;;21.53;20.23;;;;;;;;;;5073506;28;20446;-75
2023/03/13 13:04:43;;;;;;;20.40;19.20;;;;;;;;;;5074434;28;20491;-75
2023/03/13 13:07:21;;;;;;;20.67;19.47;;;;;;;;;;5073222;28;20506;-75
2023/03/13 13:10:00;;;;;;;20.90;19.70;;;;;;;;;;5074362;28;20476;-75
2023/03/13 13:12:28;;;;;;;20.90;19.70;;;;;;;;;;5073205;28;20971;-74
2023/03/13 13:15:02;;;;;;;20.70;19.50;;;;;;;;;;5074048;28;20495;-76
2023/03/13 13:17:32;;;;;;;20.23;18.87;;;;;;;;;;5074042;28;20772;-78
2023/03/13 13:19:59;;;;;;;20.00;18.90;;;;;;;;;;5074226;28;20435;-76
2023/03/13 13:22:44;;;;;;;20.63;19.43;;;;;;;;;;5072873;28;20957;-76
2023/03/13 13:28:25;;;;;;;20.90;19.60;;;;;;;;;;5154212;27;20560;-75
2023/03/13 13:30:52;;;;;;;20.60;19.40;;;;;;;;;;5152950;27;20466;-74
2023/03/13 13:33:36;;;;;;;20.63;19.43;;;;;;;;;;5152582;27;20442;-74
2023/03/13 13:36:22;;;;;;;21.20;20.00;;;;;;;;;;5152175;27;20917;-74
2023/03/13 13:38:49;;;;;;;20.50;19.20;;;;;;;;;;5152806;27;20438;-74
2023/03/13 13:41:33;;;;;;;20.40;19.30;;;;;;;;;;5153237;27;20443;-74
2023/03/13 13:44:23;;;;;;;22.03;20.73;;;;;;;;;;5152792;27;20758;-73
2023/03/13 13:46:50;;;;;;;20.27;19.03;;;;;;;;;;5151965;27;20461;-74
2023/03/13 13:49:18;;;;;;;21.23;19.80;;;;;;;;;;5152463;27;20438;-73
2023/03/13 13:52:00;;;;;;;21.07;19.87;;;;;;;;;;5151523;27;20894;-73
2023/03/13 13:54:33;;;;;;;21.03;19.83;;;;;;;;;;5151634;27;20449;-73
2023/03/13 13:57:00;;;;;;;21.40;20.20;;;;;;;;;;5151475;27;20814;-73
2023/03/13 13:59:31;;;;;;;21.53;20.23;;;;;;;;;;5152721;27;20438;-73
2023/03/13 14:02:13;;;;;;;21.10;20.00;;;;;;;;;;5151702;27;20442;-73
2023/03/13 14:04:42;;;;;;;21.57;20.33;;;;;;;;;;5152729;27;20393;-79
2023/03/13 14:07:12;;;;;;;21.20;20.00;;;;;;;;;;5133417;27;20502;-78
2023/03/13 14:09:44;;;;;;;21.27;20.07;;;;;;;;;;5131023;28;20428;-78
2023/03/13 14:12:25;;;;;;;21.47;20.27;;;;;;;;;;5132217;28;20485;-79
2023/03/13 14:15:06;;;;;;;21.87;20.67;;;;;;;;;;5132760;28;20788;-79
2023/03/13 14:17:38;;;;;;;21.53;20.30;;;;;;;;;;5132302;28;20441;-78
2023/03/13 14:20:07;;;;;;;21.03;19.63;;;;;;;;;;5133220;28;20830;-79
2023/03/13 14:22:45;;;;;;;20.97;19.77;;;;;;;;;;5131128;28;20473;-79
2023/03/13 14:25:12;;;;;;;20.77;19.67;;;;;;;;;;5130137;28;20435;-73
2023/03/13 14:27:43;;;;;;;20.60;19.40;;;;;;;;;;5129997;27;20858;-73
2023/03/13 14:30:15;;;;;;;21.17;19.97;;;;;;;;;;5130702;28;20443;-74